createdAt,value
2016-10-26T00:00:50.799Z,22.22
2016-10-26T00:01:50.379Z,22.2
2016-10-26T00:02:50.416Z,22.22
2016-10-26T00:03:50.450Z,22.23
2016-10-26T00:04:50.463Z,22.11
2016-10-26T00:05:50.547Z,22.22
2016-10-26T00:06:51.077Z,22.23
2016-10-26T00:07:50.636Z,22.28
2016-10-26T00:08:50.762Z,22.3
2016-10-26T00:09:50.868Z,22.32
2016-10-26T00:10:51.349Z,22.29
2016-10-26T00:11:50.859Z,22.35
2016-10-26T00:12:50.954Z,22.33
2016-10-26T00:13:50.982Z,22.32
2016-10-26T00:14:51.106Z,22.38
2016-10-26T00:15:51.604Z,22.25
2016-10-26T00:16:51.632Z,22.25
2016-10-26T00:17:51.687Z,22.35
2016-10-26T00:18:51.207Z,22.23
2016-10-26T00:19:51.416Z,22.36
2016-10-26T00:20:51.311Z,22.3
2016-10-26T00:21:51.412Z,22.18
2016-10-26T00:22:51.476Z,22.22
2016-10-26T00:23:52.029Z,22.26
2016-10-26T00:24:52.187Z,22.32
2016-10-26T00:25:52.123Z,22.26
2016-10-26T00:26:52.147Z,22.23
2016-10-26T00:27:51.675Z,22.22
2016-10-26T00:28:51.713Z,22.28
2016-10-26T00:29:51.885Z,22.2
2016-10-26T00:30:51.892Z,22.25
2016-10-26T00:31:51.893Z,22.23
2016-10-26T00:32:51.942Z,22.22
2016-10-26T00:33:52.010Z,22.25
2016-10-26T00:34:52.709Z,22.2
2016-10-26T00:35:52.624Z,22.08
2016-10-26T00:36:52.178Z,22.07
2016-10-26T00:37:52.747Z,22.02
2016-10-26T00:38:52.308Z,22.02
2016-10-26T00:39:52.290Z,21.99
2016-10-26T00:40:52.407Z,21.96
2016-10-26T00:41:52.452Z,22.1
2016-10-26T00:42:52.444Z,22.08
2016-10-26T00:43:53.072Z,22.11
2016-10-26T00:44:52.550Z,22.14
2016-10-26T00:45:53.156Z,22.14
2016-10-26T00:46:53.171Z,22.08
2016-10-26T00:47:53.290Z,22.07
2016-10-26T00:48:52.799Z,22.17
2016-10-26T00:49:52.856Z,22.11
2016-10-26T00:50:53.004Z,22.2
2016-10-26T00:51:52.932Z,22.08
2016-10-26T00:52:54.036Z,22.1
2016-10-26T00:53:53.039Z,22.13
2016-10-26T00:54:53.136Z,22.17
2016-10-26T00:55:53.248Z,22.15
2016-10-26T00:56:53.209Z,22.07
2016-10-26T00:57:53.808Z,22.07
2016-10-26T00:58:53.308Z,22.2
2016-10-26T00:59:53.397Z,22.22
2016-10-26T01:00:53.520Z,22.15
2016-10-26T01:01:53.448Z,22.17
2016-10-26T01:02:53.538Z,22.18
2016-10-26T01:03:54.150Z,22.1
2016-10-26T01:04:53.601Z,22.22
2016-10-26T01:05:53.664Z,22.17
2016-10-26T01:06:53.768Z,22.18
2016-10-26T01:07:53.774Z,22.22
2016-10-26T01:08:53.841Z,22.2
2016-10-26T01:09:53.902Z,22.15
2016-10-26T01:10:53.951Z,22.28
2016-10-26T01:11:54.559Z,22.26
2016-10-26T01:12:54.042Z,22.23
2016-10-26T01:13:54.079Z,22.1
2016-10-26T01:14:54.687Z,22.11
2016-10-26T01:15:54.212Z,22.18
2016-10-26T01:16:54.244Z,22.18
2016-10-26T01:17:54.296Z,22.08
2016-10-26T01:18:54.358Z,22.14
2016-10-26T01:19:54.444Z,22.1
2016-10-26T01:20:54.472Z,22.11
2016-10-26T01:21:54.597Z,21.8
2016-10-26T01:22:55.080Z,21.93
2016-10-26T01:23:54.623Z,21.93
2016-10-26T01:24:55.179Z,21.93
2016-10-26T01:25:54.679Z,21.91
2016-10-26T01:26:54.878Z,21.89
2016-10-26T01:27:54.804Z,21.77
2016-10-26T01:28:54.835Z,21.95
2016-10-26T01:29:54.932Z,21.92
2016-10-26T01:30:54.995Z,21.8
2016-10-26T01:31:55.633Z,22
2016-10-26T01:32:55.615Z,21.99
2016-10-26T01:33:55.156Z,22
2016-10-26T01:34:55.730Z,21.96
2016-10-26T01:35:55.234Z,22.02
2016-10-26T01:36:55.306Z,21.93
2016-10-26T01:37:55.354Z,21.88
2016-10-26T01:38:55.390Z,21.91
2016-10-26T01:39:56.461Z,21.98
2016-10-26T01:40:56.024Z,21.85
2016-10-26T01:41:56.055Z,21.88
2016-10-26T01:42:55.631Z,21.83
2016-10-26T01:43:55.671Z,21.83
2016-10-26T01:44:56.265Z,21.88
2016-10-26T01:45:56.764Z,21.75
2016-10-26T01:46:55.801Z,21.77
2016-10-26T01:47:55.880Z,21.88
2016-10-26T01:48:55.899Z,21.85
2016-10-26T01:49:56.012Z,21.91
2016-10-26T01:50:56.539Z,21.91
2016-10-26T01:51:56.653Z,21.8
2016-10-26T01:52:56.226Z,21.85
2016-10-26T01:53:56.195Z,21.77
2016-10-26T01:54:56.183Z,21.88
2016-10-26T01:55:56.287Z,21.82
2016-10-26T01:56:56.335Z,21.77
2016-10-26T01:57:56.469Z,21.79
2016-10-26T01:58:56.450Z,21.88
2016-10-26T01:59:56.459Z,21.83
2016-10-26T02:00:57.083Z,21.89
2016-10-26T02:01:56.576Z,21.92
2016-10-26T02:02:56.740Z,21.89
2016-10-26T02:03:56.699Z,21.92
2016-10-26T02:04:56.767Z,21.8
2016-10-26T02:05:57.868Z,21.77
2016-10-26T02:06:56.863Z,21.75
2016-10-26T02:07:56.863Z,21.82
2016-10-26T02:08:57.520Z,21.77
2016-10-26T02:09:56.995Z,21.76
2016-10-26T02:10:57.071Z,21.75
2016-10-26T02:11:57.080Z,21.85
2016-10-26T02:12:57.661Z,21.85
2016-10-26T02:13:57.227Z,21.83
2016-10-26T02:14:57.316Z,21.79
2016-10-26T02:15:57.323Z,21.89
2016-10-26T02:16:57.372Z,21.93
2016-10-26T02:17:57.974Z,21.85
2016-10-26T02:18:57.770Z,21.89
2016-10-26T02:19:57.530Z,21.91
2016-10-26T02:20:57.568Z,21.96
2016-10-26T02:21:57.615Z,22
2016-10-26T02:22:58.167Z,21.98
2016-10-26T02:23:57.792Z,21.99
2016-10-26T02:24:58.847Z,21.99
2016-10-26T02:25:57.892Z,22
2016-10-26T02:26:58.423Z,22.04
2016-10-26T02:27:57.929Z,21.99
2016-10-26T02:28:58.060Z,22.06
2016-10-26T02:29:58.588Z,22.04
2016-10-26T02:30:58.107Z,22.06
2016-10-26T02:31:58.677Z,22.06
2016-10-26T02:32:58.189Z,22
2016-10-26T02:33:58.727Z,21.99
2016-10-26T02:34:58.845Z,21.96
2016-10-26T02:35:58.859Z,22.07
2016-10-26T02:36:58.420Z,22.02
2016-10-26T02:37:58.477Z,22.1
2016-10-26T02:38:59.027Z,21.98
2016-10-26T02:39:58.562Z,21.92
2016-10-26T02:40:58.594Z,21.92
2016-10-26T02:41:58.656Z,21.88
2016-10-26T02:42:59.242Z,21.91
2016-10-26T02:43:58.795Z,21.92
2016-10-26T02:44:58.910Z,21.95
2016-10-26T02:45:58.857Z,21.85
2016-10-26T02:46:58.917Z,21.91
2016-10-26T02:47:59.004Z,21.92
2016-10-26T02:48:59.020Z,22.02
2016-10-26T02:49:59.175Z,21.98
2016-10-26T02:50:59.109Z,22
2016-10-26T02:51:59.178Z,22.04
2016-10-26T02:52:59.246Z,22.07
2016-10-26T02:53:59.301Z,22.13
2016-10-26T02:54:59.420Z,22.07
2016-10-26T02:55:59.371Z,22.1
2016-10-26T02:56:59.432Z,22.13
2016-10-26T02:57:59.998Z,22.06
2016-10-26T02:58:59.546Z,22.14
2016-10-26T03:00:00.228Z,22.1
2016-10-26T03:01:00.689Z,22
2016-10-26T03:02:00.256Z,22.1
2016-10-26T03:02:59.772Z,22.07
2016-10-26T03:03:59.787Z,21.99
2016-10-26T03:05:00.368Z,21.92
2016-10-26T03:06:00.481Z,21.89
2016-10-26T03:07:00.471Z,21.92
2016-10-26T03:08:00.542Z,21.96
2016-10-26T03:09:00.040Z,22.04
2016-10-26T03:10:00.142Z,22.07
2016-10-26T03:11:00.707Z,22.04
2016-10-26T03:12:00.743Z,22.07
2016-10-26T03:13:00.280Z,22.07
2016-10-26T03:14:00.321Z,22.06
2016-10-26T03:15:00.413Z,22.04
2016-10-26T03:16:01.008Z,22.07
2016-10-26T03:17:01.012Z,22.06
2016-10-26T03:18:00.552Z,22.07
2016-10-26T03:19:00.581Z,22.08
2016-10-26T03:20:00.696Z,22.14
2016-10-26T03:21:00.762Z,22.11
2016-10-26T03:22:01.236Z,22.11
2016-10-26T03:23:00.774Z,22.11
2016-10-26T03:24:00.866Z,22.07
2016-10-26T03:25:00.907Z,22.15
2016-10-26T03:26:01.029Z,22.11
2016-10-26T03:27:01.520Z,22.13
2016-10-26T03:28:01.550Z,22.1
2016-10-26T03:29:01.086Z,22.1
2016-10-26T03:30:01.695Z,22.17
2016-10-26T03:31:01.255Z,22.13
2016-10-26T03:32:01.280Z,22.14
2016-10-26T03:33:01.320Z,22.18
2016-10-26T03:34:01.369Z,22.18
2016-10-26T03:35:01.441Z,22.2
2016-10-26T03:36:01.453Z,22.26
2016-10-26T03:37:02.116Z,22.25
2016-10-26T03:38:01.577Z,22.22
2016-10-26T03:39:01.626Z,22.17
2016-10-26T03:40:01.687Z,22.18
2016-10-26T03:41:01.734Z,22.13
2016-10-26T03:42:01.893Z,22.14
2016-10-26T03:43:01.945Z,22.07
2016-10-26T03:44:01.893Z,22.13
2016-10-26T03:45:01.956Z,22.13
2016-10-26T03:46:02.097Z,22.13
2016-10-26T03:47:02.765Z,22.08
2016-10-26T03:48:02.094Z,22.11
2016-10-26T03:49:02.195Z,22.14
2016-10-26T03:50:02.308Z,22.08
2016-10-26T03:51:02.277Z,22.15
2016-10-26T03:52:02.401Z,22.07
2016-10-26T03:53:02.485Z,22.11
2016-10-26T03:54:02.460Z,22.13
2016-10-26T03:55:02.484Z,21.91
2016-10-26T03:56:02.584Z,21.93
2016-10-26T03:57:02.697Z,21.96
2016-10-26T03:58:03.168Z,22
2016-10-26T03:59:02.664Z,22.07
2016-10-26T04:00:02.843Z,21.95
2016-10-26T04:01:02.861Z,22.06
2016-10-26T04:02:02.977Z,22.02
2016-10-26T04:03:03.060Z,22.06
2016-10-26T04:04:03.670Z,22.11
2016-10-26T04:05:03.018Z,22.08
2016-10-26T04:06:03.149Z,22.11
2016-10-26T04:07:03.176Z,22.07
2016-10-26T04:08:03.200Z,22.08
2016-10-26T04:09:03.242Z,22.1
2016-10-26T04:10:03.303Z,22.08
2016-10-26T04:11:03.324Z,22.02
2016-10-26T04:12:03.557Z,22.1
2016-10-26T04:13:03.932Z,22.13
2016-10-26T04:14:03.461Z,22.08
2016-10-26T04:15:03.543Z,22.13
2016-10-26T04:16:03.587Z,22
2016-10-26T04:17:03.655Z,22.04
2016-10-26T04:18:04.346Z,22.07
2016-10-26T04:19:04.239Z,22.11
2016-10-26T04:20:03.781Z,22.06
2016-10-26T04:21:03.834Z,22.15
2016-10-26T04:22:04.366Z,22.15
2016-10-26T04:23:04.027Z,22.15
2016-10-26T04:24:03.998Z,22.07
2016-10-26T04:25:04.056Z,22.17
2016-10-26T04:26:04.096Z,22.17
2016-10-26T04:27:04.668Z,22.18
2016-10-26T04:28:04.820Z,22.22
2016-10-26T04:29:04.814Z,22.15
2016-10-26T04:30:04.288Z,22.2
2016-10-26T04:31:04.381Z,22.14
2016-10-26T04:32:04.402Z,22.18
2016-10-26T04:33:04.489Z,22.2
2016-10-26T04:34:04.503Z,22.2
2016-10-26T04:35:04.614Z,22.2
2016-10-26T04:36:04.629Z,22.23
2016-10-26T04:37:05.214Z,22.11
2016-10-26T04:38:04.714Z,22.15
2016-10-26T04:39:05.359Z,22.1
2016-10-26T04:40:04.814Z,22.1
2016-10-26T04:41:04.927Z,22.1
2016-10-26T04:42:05.458Z,22.07
2016-10-26T04:43:05.065Z,22.11
2016-10-26T04:44:05.048Z,22.11
2016-10-26T04:45:05.074Z,22.13
2016-10-26T04:46:05.674Z,22.17
2016-10-26T04:47:05.200Z,22.07
2016-10-26T04:48:05.218Z,21.99
2016-10-26T04:49:05.389Z,22.04
2016-10-26T04:50:05.332Z,22.04
2016-10-26T04:51:05.448Z,22.1
2016-10-26T04:52:05.979Z,22.06
2016-10-26T04:53:05.543Z,21.98
2016-10-26T04:54:06.167Z,21.99
2016-10-26T04:55:06.261Z,21.95
2016-10-26T04:56:05.634Z,21.99
2016-10-26T04:57:06.277Z,21.99
2016-10-26T04:58:05.745Z,21.95
2016-10-26T04:59:05.935Z,22.02
2016-10-26T05:00:05.864Z,22
2016-10-26T05:01:05.925Z,22.1
2016-10-26T05:02:07.004Z,22.02
2016-10-26T05:03:06.014Z,22.04
2016-10-26T05:04:06.167Z,22.02
2016-10-26T05:05:06.158Z,22.08
2016-10-26T05:06:06.685Z,22.02
2016-10-26T05:07:06.228Z,22.06
2016-10-26T05:08:06.292Z,22.06
2016-10-26T05:09:06.430Z,22.14
2016-10-26T05:10:06.379Z,22.1
2016-10-26T05:11:06.461Z,22.14
2016-10-26T05:12:06.491Z,22.11
2016-10-26T05:13:06.581Z,22.02
2016-10-26T05:14:07.009Z,22
2016-10-26T05:15:06.642Z,22.07
2016-10-26T05:16:06.697Z,22.06
2016-10-26T05:17:06.747Z,22.04
2016-10-26T05:18:06.849Z,21.98
2016-10-26T05:19:06.872Z,22.02
2016-10-26T05:20:07.425Z,22.04
2016-10-26T05:21:06.995Z,22.04
2016-10-26T05:22:07.019Z,21.99
2016-10-26T05:23:07.077Z,22.04
2016-10-26T05:24:07.100Z,22
2016-10-26T05:25:07.177Z,21.96
2016-10-26T05:26:07.246Z,21.95
2016-10-26T05:27:08.315Z,21.96
2016-10-26T05:28:07.319Z,21.99
2016-10-26T05:29:07.387Z,22.04
2016-10-26T05:30:07.563Z,21.96
2016-10-26T05:31:07.488Z,21.99
2016-10-26T05:32:07.516Z,21.88
2016-10-26T05:33:07.601Z,21.88
2016-10-26T05:34:07.642Z,21.88
2016-10-26T05:35:08.290Z,22
2016-10-26T05:36:07.758Z,21.93
2016-10-26T05:37:07.798Z,21.93
2016-10-26T05:38:07.854Z,21.93
2016-10-26T05:39:07.950Z,21.83
2016-10-26T05:40:08.062Z,21.99
2016-10-26T05:41:07.988Z,22.07
2016-10-26T05:42:08.569Z,21.98
2016-10-26T05:43:08.109Z,22.04
2016-10-26T05:44:08.146Z,21.99
2016-10-26T05:45:08.251Z,21.85
2016-10-26T05:46:08.282Z,21.93
2016-10-26T05:47:08.829Z,21.89
2016-10-26T05:48:08.369Z,21.85
2016-10-26T05:49:08.420Z,21.85
2016-10-26T05:50:09.029Z,21.83
2016-10-26T05:51:08.570Z,21.88
2016-10-26T05:52:08.587Z,21.89
2016-10-26T05:53:08.635Z,21.96
2016-10-26T05:54:08.677Z,21.83
2016-10-26T05:55:08.710Z,21.95
2016-10-26T05:56:08.894Z,21.92
2016-10-26T05:57:08.855Z,21.92
2016-10-26T05:58:08.872Z,21.88
2016-10-26T05:59:08.944Z,21.92
2016-10-26T06:00:09.562Z,21.89
2016-10-26T06:01:09.124Z,21.93
2016-10-26T06:02:09.081Z,21.85
2016-10-26T06:03:09.185Z,21.93
2016-10-26T06:04:09.203Z,21.92
2016-10-26T06:05:09.282Z,21.93
2016-10-26T06:06:09.929Z,21.92
2016-10-26T06:07:09.371Z,21.88
2016-10-26T06:08:09.910Z,21.85
2016-10-26T06:09:09.988Z,21.93
2016-10-26T06:10:09.511Z,21.8
2016-10-26T06:11:09.672Z,21.89
2016-10-26T06:12:09.624Z,21.82
2016-10-26T06:13:09.631Z,21.79
2016-10-26T06:14:09.777Z,21.83
2016-10-26T06:15:09.752Z,21.89
2016-10-26T06:16:09.866Z,21.89
2016-10-26T06:17:09.874Z,21.89
2016-10-26T06:18:09.942Z,21.91
2016-10-26T06:19:09.996Z,21.88
2016-10-26T06:20:10.024Z,21.82
2016-10-26T06:21:10.057Z,21.82
2016-10-26T06:22:10.864Z,21.8
2016-10-26T06:23:10.191Z,21.75
2016-10-26T06:24:10.240Z,21.77
2016-10-26T06:25:10.334Z,21.73
2016-10-26T06:26:10.330Z,21.82
2016-10-26T06:27:10.455Z,21.77
2016-10-26T06:28:10.447Z,21.88
2016-10-26T06:29:10.559Z,21.88
2016-10-26T06:30:11.064Z,21.91
2016-10-26T06:31:10.610Z,21.91
2016-10-26T06:32:11.254Z,21.82
2016-10-26T06:33:10.676Z,21.76
2016-10-26T06:34:11.314Z,21.8
2016-10-26T06:35:10.847Z,21.79
2016-10-26T06:36:11.038Z,21.76
2016-10-26T06:37:11.597Z,21.8
2016-10-26T06:38:10.963Z,21.73
2016-10-26T06:39:11.022Z,21.76
2016-10-26T06:40:11.112Z,21.7
2016-10-26T06:41:11.081Z,21.75
2016-10-26T06:42:11.270Z,21.77
2016-10-26T06:43:11.236Z,21.7
2016-10-26T06:44:11.796Z,21.75
2016-10-26T06:45:11.353Z,21.75
2016-10-26T06:46:11.916Z,21.83
2016-10-26T06:47:11.526Z,21.73
2016-10-26T06:48:11.473Z,21.8
2016-10-26T06:49:11.550Z,21.76
2016-10-26T06:50:12.145Z,21.72
2016-10-26T06:51:11.619Z,21.79
2016-10-26T06:52:11.669Z,21.82
2016-10-26T06:53:11.766Z,21.79
2016-10-26T06:54:11.802Z,21.75
2016-10-26T06:55:11.836Z,21.76
2016-10-26T06:56:12.443Z,21.82
2016-10-26T06:57:12.470Z,21.77
2016-10-26T06:58:12.022Z,21.67
2016-10-26T06:59:12.053Z,21.72
2016-10-26T07:00:12.097Z,21.7
2016-10-26T07:01:12.136Z,21.66
2016-10-26T07:02:12.187Z,21.67
2016-10-26T07:03:12.351Z,21.69
2016-10-26T07:04:12.793Z,21.7
2016-10-26T07:05:12.883Z,21.72
2016-10-26T07:06:12.937Z,21.73
2016-10-26T07:07:13.543Z,21.69
2016-10-26T07:08:12.604Z,21.7
2016-10-26T07:09:12.616Z,21.55
2016-10-26T07:10:12.661Z,21.72
2016-10-26T07:11:13.710Z,21.69
2016-10-26T07:12:12.729Z,21.72
2016-10-26T07:13:12.891Z,21.72
2016-10-26T07:14:12.817Z,21.72
2016-10-26T07:15:13.438Z,21.69
2016-10-26T07:16:12.935Z,21.69
2016-10-26T07:17:12.950Z,21.73
2016-10-26T07:18:13.673Z,21.64
2016-10-26T07:19:13.612Z,21.72
2016-10-26T07:20:13.145Z,21.69
2016-10-26T07:21:13.185Z,21.66
2016-10-26T07:22:13.741Z,21.7
2016-10-26T07:23:13.296Z,21.75
2016-10-26T07:24:13.930Z,21.7
2016-10-26T07:25:13.389Z,21.77
2016-10-26T07:26:13.446Z,21.7
2016-10-26T07:27:14.573Z,21.67
2016-10-26T07:28:14.074Z,21.7
2016-10-26T07:29:13.623Z,21.7
2016-10-26T07:30:13.687Z,21.72
2016-10-26T07:31:13.740Z,21.72
2016-10-26T07:32:13.802Z,21.61
2016-10-26T07:33:13.812Z,21.57
2016-10-26T07:34:13.987Z,21.67
2016-10-26T07:35:13.932Z,21.66
2016-10-26T07:36:14.529Z,21.57
2016-10-26T07:37:14.019Z,21.6
2016-10-26T07:38:14.111Z,21.61
2016-10-26T07:39:14.246Z,21.6
2016-10-26T07:40:14.188Z,21.6
2016-10-26T07:41:14.255Z,21.64
2016-10-26T07:42:14.272Z,21.54
2016-10-26T07:43:14.351Z,21.5
2016-10-26T07:44:14.472Z,21.51
2016-10-26T07:45:14.993Z,21.61
2016-10-26T07:46:14.983Z,21.58
2016-10-26T07:47:14.568Z,21.64
2016-10-26T07:48:14.596Z,21.57
2016-10-26T07:49:15.267Z,21.55
2016-10-26T07:50:14.684Z,21.64
2016-10-26T07:51:14.769Z,21.64
2016-10-26T07:52:14.812Z,21.6
2016-10-26T07:53:14.847Z,21.54
2016-10-26T07:54:15.404Z,21.55
2016-10-26T07:55:15.503Z,21.67
2016-10-26T07:56:15.021Z,21.58
2016-10-26T07:57:15.053Z,21.66
2016-10-26T07:58:15.113Z,21.69
2016-10-26T07:59:15.149Z,21.58
2016-10-26T08:00:15.180Z,21.7
2016-10-26T08:01:15.270Z,21.6
2016-10-26T08:02:15.806Z,21.67
2016-10-26T08:03:15.365Z,21.76
2016-10-26T08:04:15.982Z,21.76
2016-10-26T08:05:15.492Z,21.67
2016-10-26T08:06:15.509Z,21.7
2016-10-26T08:07:15.560Z,21.61
2016-10-26T08:08:15.631Z,21.64
2016-10-26T08:09:15.692Z,21.7
2016-10-26T08:10:16.315Z,21.72
2016-10-26T08:11:15.764Z,21.77
2016-10-26T08:12:15.819Z,21.75
2016-10-26T08:13:15.907Z,21.76
2016-10-26T08:14:16.483Z,21.8
2016-10-26T08:15:16.617Z,21.79
2016-10-26T08:16:16.057Z,21.73
2016-10-26T08:17:16.611Z,21.76
2016-10-26T08:18:16.674Z,21.75
2016-10-26T08:19:16.712Z,21.76
2016-10-26T08:20:16.370Z,21.7
2016-10-26T08:21:16.311Z,21.64
2016-10-26T08:22:16.375Z,21.7
2016-10-26T08:23:16.415Z,21.75
2016-10-26T08:24:16.463Z,21.69
2016-10-26T08:25:16.499Z,21.7
2016-10-26T08:26:16.580Z,21.75
2016-10-26T08:27:17.130Z,21.64
2016-10-26T08:28:17.177Z,21.69
2016-10-26T08:29:16.706Z,21.69
2016-10-26T08:30:16.779Z,21.67
2016-10-26T08:31:16.842Z,21.61
2016-10-26T08:32:16.880Z,21.69
2016-10-26T08:33:16.915Z,21.69
2016-10-26T08:34:16.975Z,21.7
2016-10-26T08:35:16.998Z,21.72
2016-10-26T08:36:17.113Z,21.7
2016-10-26T08:37:17.130Z,21.77
2016-10-26T08:38:17.186Z,21.79
2016-10-26T08:39:17.238Z,21.69
2016-10-26T08:40:17.296Z,21.69
2016-10-26T08:41:17.465Z,21.69
2016-10-26T08:42:17.408Z,21.64
2016-10-26T08:43:17.426Z,21.75
2016-10-26T08:44:17.513Z,21.7
2016-10-26T08:45:17.557Z,21.69
2016-10-26T08:46:17.681Z,21.7
2016-10-26T08:47:17.734Z,21.62
2016-10-26T08:48:17.721Z,21.7
2016-10-26T08:49:17.765Z,21.72
2016-10-26T08:50:17.827Z,21.77
2016-10-26T08:51:18.482Z,21.76
2016-10-26T08:52:18.467Z,21.76
2016-10-26T08:53:17.972Z,21.73
2016-10-26T08:54:18.020Z,21.77
2016-10-26T08:55:18.084Z,21.8
2016-10-26T08:56:18.208Z,21.77
2016-10-26T08:57:18.360Z,21.76
2016-10-26T08:58:18.211Z,21.88
2016-10-26T08:59:18.241Z,21.85
2016-10-26T09:00:18.324Z,21.85
2016-10-26T09:01:18.441Z,21.79
2016-10-26T09:02:19.531Z,21.85
2016-10-26T09:03:18.554Z,21.79
2016-10-26T09:04:19.058Z,21.83
2016-10-26T09:05:18.571Z,21.89
2016-10-26T09:06:18.635Z,21.75
2016-10-26T09:07:18.681Z,21.79
2016-10-26T09:08:18.724Z,21.77
2016-10-26T09:09:18.837Z,21.73
2016-10-26T09:10:18.838Z,21.88
2016-10-26T09:11:19.632Z,21.79
2016-10-26T09:12:19.003Z,21.85
2016-10-26T09:13:19.031Z,21.82
2016-10-26T09:14:19.063Z,21.91
2016-10-26T09:15:19.135Z,21.96
2016-10-26T09:16:19.167Z,21.85
2016-10-26T09:17:19.202Z,21.91
2016-10-26T09:18:19.261Z,21.92
2016-10-26T09:19:19.350Z,21.88
2016-10-26T09:20:19.376Z,21.93
2016-10-26T09:21:19.415Z,21.83
2016-10-26T09:22:19.555Z,21.96
2016-10-26T09:23:19.530Z,21.83
2016-10-26T09:24:19.587Z,21.91
2016-10-26T09:25:20.169Z,21.91
2016-10-26T09:26:19.665Z,21.8
2016-10-26T09:27:19.810Z,21.99
2016-10-26T09:28:19.793Z,22.06
2016-10-26T09:29:19.849Z,22.02
2016-10-26T09:30:19.901Z,22.1
2016-10-26T09:31:20.446Z,21.98
2016-10-26T09:32:20.066Z,22.08
2016-10-26T09:33:20.042Z,22.08
2016-10-26T09:34:20.134Z,22.14
2016-10-26T09:35:20.196Z,22.15
2016-10-26T09:36:20.701Z,22.15
2016-10-26T09:37:20.884Z,22.13
2016-10-26T09:38:20.299Z,22.11
2016-10-26T09:39:20.333Z,22.14
2016-10-26T09:40:20.445Z,22.13
2016-10-26T09:41:20.459Z,22.11
2016-10-26T09:42:20.501Z,22.07
2016-10-26T09:43:21.151Z,22.06
2016-10-26T09:44:20.625Z,21.95
2016-10-26T09:45:20.675Z,22.1
2016-10-26T09:46:20.696Z,22.1
2016-10-26T09:47:21.254Z,22.11
2016-10-26T09:48:20.838Z,22.13
2016-10-26T09:49:20.902Z,22.02
2016-10-26T09:50:20.887Z,22
2016-10-26T09:51:22.025Z,22.1
2016-10-26T09:52:21.043Z,22.08
2016-10-26T09:53:21.117Z,22.04
2016-10-26T09:54:21.140Z,22.06
2016-10-26T09:55:21.191Z,22.08
2016-10-26T09:56:21.768Z,22.02
2016-10-26T09:57:21.297Z,22.11
2016-10-26T09:58:21.371Z,22.08
2016-10-26T09:59:21.397Z,22.13
2016-10-26T10:00:21.428Z,22.1
2016-10-26T10:01:22.090Z,22.14
2016-10-26T10:02:22.076Z,22.13
2016-10-26T10:03:22.149Z,22.15
2016-10-26T10:04:21.648Z,22.15
2016-10-26T10:05:22.432Z,22.08
2016-10-26T10:06:21.775Z,22.14
2016-10-26T10:07:21.848Z,22.14
2016-10-26T10:08:21.989Z,22.13
2016-10-26T10:09:21.976Z,22.17
2016-10-26T10:10:22.497Z,22.13
2016-10-26T10:11:22.094Z,22.26
2016-10-26T10:12:22.059Z,22.15
2016-10-26T10:13:22.253Z,22.28
2016-10-26T10:14:22.171Z,22.3
2016-10-26T10:15:22.206Z,22.25
2016-10-26T10:16:22.285Z,22.28
2016-10-26T10:17:22.832Z,22.32
2016-10-26T10:18:22.472Z,22.32
2016-10-26T10:19:22.421Z,22.28
2016-10-26T10:20:22.547Z,22.33
2016-10-26T10:21:22.542Z,22.33
2016-10-26T10:22:22.833Z,22.26
2016-10-26T10:23:22.618Z,22.32
2016-10-26T10:24:23.232Z,22.29
2016-10-26T10:25:22.770Z,22.29
2016-10-26T10:26:22.792Z,22.33
2016-10-26T10:27:22.852Z,22.35
2016-10-26T10:28:22.901Z,22.35
2016-10-26T10:29:22.939Z,22.35
2016-10-26T10:30:22.996Z,22.39
2016-10-26T10:31:23.055Z,22.39
2016-10-26T10:32:23.633Z,22.38
2016-10-26T10:33:23.154Z,22.43
2016-10-26T10:34:23.243Z,22.43
2016-10-26T10:35:23.283Z,22.39
2016-10-26T10:36:23.336Z,22.39
2016-10-26T10:37:23.391Z,22.35
2016-10-26T10:38:23.932Z,22.48
2016-10-26T10:39:23.581Z,22.43
2016-10-26T10:40:23.544Z,22.5
2016-10-26T10:41:24.080Z,22.57
2016-10-26T10:42:24.190Z,22.65
2016-10-26T10:43:24.237Z,22.65
2016-10-26T10:44:23.824Z,22.6
2016-10-26T10:45:23.792Z,22.69
2016-10-26T10:46:24.368Z,22.66
2016-10-26T10:47:23.890Z,22.76
2016-10-26T10:48:23.970Z,22.83
2016-10-26T10:49:24.126Z,22.84
2016-10-26T10:50:24.612Z,22.75
2016-10-26T10:51:24.142Z,22.88
2016-10-26T10:52:24.180Z,22.9
2016-10-26T10:53:24.232Z,22.85
2016-10-26T10:54:24.891Z,22.78
2016-10-26T10:55:24.334Z,22.78
2016-10-26T10:56:24.389Z,22.83
2016-10-26T10:57:24.440Z,22.88
2016-10-26T10:58:24.477Z,22.84
2016-10-26T10:59:24.501Z,22.9
2016-10-26T11:00:25.169Z,23.02
2016-10-26T11:01:24.667Z,23.06
2016-10-26T11:02:25.783Z,23.12
2016-10-26T11:03:24.765Z,23.27
2016-10-26T11:04:24.802Z,23.34
2016-10-26T11:05:25.389Z,23.39
2016-10-26T11:06:24.876Z,23.46
2016-10-26T11:07:24.920Z,23.46
2016-10-26T11:08:25.529Z,23.46
2016-10-26T11:09:25.070Z,23.47
2016-10-26T11:10:25.628Z,23.54
2016-10-26T11:11:25.187Z,23.62
2016-10-26T11:12:25.787Z,23.54
2016-10-26T11:13:25.246Z,23.56
2016-10-26T11:14:25.377Z,23.61
2016-10-26T11:15:25.930Z,23.68
2016-10-26T11:16:25.447Z,23.73
2016-10-26T11:17:25.449Z,23.68
2016-10-26T11:18:26.100Z,23.61
2016-10-26T11:19:26.129Z,23.68
2016-10-26T11:20:26.253Z,23.69
2016-10-26T11:21:25.688Z,23.69
2016-10-26T11:38:36.071Z,24.02
2016-10-26T11:39:36.643Z,24.14
2016-10-26T11:40:36.112Z,24.16
2016-10-26T11:41:36.207Z,24.21
2016-10-26T11:42:36.179Z,24.28
2016-10-26T11:43:36.565Z,24.35
2016-10-26T11:44:36.877Z,24.32
2016-10-26T11:45:37.440Z,24.18
2016-10-26T11:46:36.982Z,24.18
2016-10-26T11:47:36.437Z,24.26
2016-10-26T11:48:36.604Z,24.35
2016-10-26T11:49:37.620Z,24.32
2016-10-26T11:50:37.150Z,24.4
2016-10-26T11:51:36.873Z,24.42
2016-10-26T11:52:36.762Z,24.61
2016-10-26T11:53:36.786Z,24.61
2016-10-26T11:54:36.900Z,24.66
2016-10-26T11:55:36.888Z,24.6
2016-10-26T11:56:36.918Z,24.61
2016-10-26T11:57:37.557Z,24.6
2016-10-26T11:58:37.057Z,24.55
2016-10-26T11:59:38.349Z,24.6
2016-10-26T12:00:37.872Z,24.7
2016-10-26T12:01:37.229Z,24.76
2016-10-26T12:02:37.256Z,24.74
2016-10-26T12:03:37.876Z,24.81
2016-10-26T12:04:38.145Z,24.92
2016-10-26T12:05:37.419Z,24.93
2016-10-26T12:06:37.513Z,24.98
2016-10-26T12:07:38.083Z,24.98
2016-10-26T12:08:37.642Z,25.06
2016-10-26T12:09:37.787Z,25.03
2016-10-26T12:10:37.710Z,24.99
2016-10-26T12:11:37.750Z,25.07
2016-10-26T12:12:37.804Z,25.13
2016-10-26T12:13:38.557Z,25.16
2016-10-26T12:14:38.025Z,25.17
2016-10-26T12:15:37.938Z,25.31
2016-10-26T12:16:37.981Z,25.41
2016-10-26T12:17:38.041Z,25.47
2016-10-26T12:18:38.097Z,25.47
2016-10-26T12:19:38.269Z,25.6
2016-10-26T12:20:38.224Z,25.77
2016-10-26T12:21:38.278Z,25.81
2016-10-26T12:22:38.323Z,25.77
2016-10-26T12:23:38.571Z,25.85
2016-10-26T12:24:38.548Z,25.78
2016-10-26T12:25:38.758Z,25.81
2016-10-26T12:26:43.233Z,25.78
2016-10-26T12:27:38.602Z,25.77
2016-10-26T12:28:38.655Z,25.83
2016-10-26T12:29:39.378Z,25.72
2016-10-26T12:30:39.274Z,25.58
2016-10-26T12:31:38.864Z,25.59
2016-10-26T12:32:38.869Z,25.63
2016-10-26T12:33:38.931Z,25.6
2016-10-26T12:34:38.979Z,25.58
2016-10-26T12:35:39.058Z,25.73
2016-10-26T12:36:39.623Z,25.78
2016-10-26T12:37:39.127Z,25.8
2016-10-26T12:38:39.226Z,25.75
2016-10-26T12:39:39.245Z,25.85
2016-10-26T12:40:39.321Z,26.03
2016-10-26T12:41:39.345Z,26.13
2016-10-26T12:42:39.409Z,26.1
2016-10-26T12:43:39.491Z,26.09
2016-10-26T12:44:39.580Z,26.09
2016-10-26T12:45:41.479Z,26.16
2016-10-26T12:46:39.644Z,26.28
2016-10-26T12:47:39.692Z,26.31
2016-10-26T12:48:39.738Z,26.37
2016-10-26T12:49:39.827Z,26.44
2016-10-26T12:50:40.513Z,26.37
2016-10-26T12:51:39.905Z,26.4
2016-10-26T12:52:39.984Z,26.37
2016-10-26T12:53:40.029Z,26.4
2016-10-26T12:54:40.169Z,26.47
2016-10-26T12:55:40.247Z,26.53
2016-10-26T12:56:40.229Z,26.44
2016-10-26T12:57:40.285Z,26.51
2016-10-26T12:58:40.831Z,26.55
2016-10-26T12:59:40.891Z,26.59
2016-10-26T13:00:40.494Z,26.65
2016-10-26T13:01:40.499Z,26.71
2016-10-26T13:02:40.560Z,26.73
2016-10-26T13:03:40.618Z,26.75
2016-10-26T13:04:40.667Z,26.83
2016-10-26T13:05:41.313Z,26.83
2016-10-26T13:06:41.288Z,26.88
2016-10-26T13:07:40.823Z,26.96
2016-10-26T13:08:41.420Z,26.92
2016-10-26T13:09:41.441Z,26.89
2016-10-26T13:10:40.973Z,26.97
2016-10-26T13:11:41.015Z,26.95
2016-10-26T13:12:41.107Z,26.93
2016-10-26T13:13:41.149Z,26.9
2016-10-26T13:14:41.738Z,26.9